Pond Inlet Airport
CYIO : now visible

Airfield :











YOU CAN JOIN US ON...

 
LOGIN :

Register | Disclaimer

   EN    FR    IT 

 









Legend :    VFR   Marginal VFR   IFR   Intensive IFR   Very Intensive IFR
Visi :
Ceiling :
>= 8 km
>= 3000ft
5 to 8 km
1000 to 3000 ft
1500m to 5 km
500 to 1000 ft
800 to 1500m
200 to 500 ft
< 800m
< 200 ft
Symbols :   Thunderstorms  Fog  Heavy snow  Heavy precipitations  Wind > 20 kt






- Airport Elevation : 181 ft
- IATA code : YIO


CYIO - Pond Inlet

CURRENT METAR :
  • 121700Z 24004KT 25SM -RA VCFG BKN028 BKN031 OVC042 06/04 A2947 RMK SC6SC1SC1 VIS-S-5 SLP986

EXPIRED METARs :
  • 121600Z VRB02KT 14SM -RA VCFG FEW031 SCT035 OVC042 06/03 A2948 RMK SC2SC2SC4 VIS-S/SW-5 SLP989
  • 121500Z CCA 03004KT 25SM -RA FEW004 BKN033 OVC043 05/03 A2948 RMK SC1SC6SC1 R01 AFT 23UTC/1/SNW CVR/NIL SLP990

TAF TAF CYIO
Valid from the 12 at 13:00 until the 13 at 01:00 UTC


121238Z 1213/1301 17007KT P6SM SCT030 BKN050
TEMPO 1213/1215 P6SM -RA BKN030 OVC050
BECMG 1213/1215 23010KT
FM121500 23010KT P6SM -RA SCT020 BKN050
TEMPO 1215/1301 2SM -RA BR SCT005 OVC020 RMK FCST BASED ON AUTO OBS. NXT FCST BY 121900Z
CZEG FIR / North America



MET'MAP, your aeronautical weather chart ! - Copyright ORBIFLY December 2007 - Disclaimer

ORBIFLY MET'MAP TEAM :

Programming & Development : Alexandra Zaïnal
Concept & original design : Baudouin d'Aumeries
Assistance for programming : Marc-Olivier Méhu
Technical & hardware support : Manuel Goepfert

Contact : metmap@orbifly.com




SOURCES & CREDITS :

   NOAA       Earth
Advisory